Aérodrome :
LOGIN :

S'inscrire | Disclaimer

   EN    FR    IT 

 










Légende :    VFR   VFR Marginal   IFR   IFR Intensif   IFR Très Intensif
Visi : 
Plafond : 
>= 8 km
>= 3000ft
5 à 8 km
1000 à 3000 ft
1500m à 5 km
500 à 1000 ft
800 à 1500m
200 à 500 ft
< 800m
< 200 ft
Symboles :   Orages  Brouillard  Fortes neiges  Fortes précipitations  Vent > 20 kt
SIGMETs :   Divers  Orages  Givrage  Turbulence  Onde Orograph.  Cendres Volcan.







- Altitude de l'aérodrome : 256 ft
- Code IATA : CFR
- Voir les cartes d'approche


LFRK - Caen

DERNIER METAR :
  • 280030Z AUTO 24008KT 9999 FEW027 SCT046 BKN060 06/03 Q1018

METARs EXPIRÉS :
  • 280000Z AUTO 24008KT 9999 FEW035 SCT044 BKN094 06/03 Q1018
  • 272330Z AUTO 24008KT 9999 FEW049 SCT056 BKN130 06/03 Q1018
  • 272300Z AUTO 24006KT 9999 BKN032 OVC047 06/03 Q1018
  • 272230Z AUTO 24006KT 9999 OVC032 06/02 Q1019
  • 272200Z AUTO 26005KT 9999 FEW034 BKN043 BKN054 06/02 Q1019
  • 272130Z AUTO 27006KT CAVOK 05/02 Q1019

Prévision TAF périmée.
Météo : +33 2 31 26 68 11
Pas de NOTAMs connus pour ce terrain.



MET'MAP, la Météo Aéronautique d'un coup d'oeil ! - Copyright ORBIFLY Décembre 2007 - Disclaimer

ORBIFLY MET'MAP TEAM :

Programmation & Développement : Alexandra Zaïnal
Conception & Développement : Baudouin d'Aumeries
Co-Programmation & Développement : Marc-Olivier Méhu
Soutien technique & logistique : Manuel Goepfert

Contact : metmap@orbifly.com




SOURCES & CREDITS :

   NOAA